sensor_id;sensor_type;location;lat;lon;timestamp;pressure;altitude;pressure_sealevel;temperature;humidity
5691;BME280;2870;42.680;23.364;2024-01-10T00:02:22;96157.63;;;-2.74;81.53
5691;BME280;2870;42.680;23.364;2024-01-10T00:04:48;96160.50;;;-2.55;82.09
5691;BME280;2870;42.680;23.364;2024-01-10T00:07:15;96164.91;;;-2.36;83.02
5691;BME280;2870;42.680;23.364;2024-01-10T00:09:43;96157.63;;;-2.52;83.20
5691;BME280;2870;42.680;23.364;2024-01-10T00:12:11;96163.19;;;-2.86;82.24
5691;BME280;2870;42.680;23.364;2024-01-10T00:14:38;96161.72;;;-2.78;80.96
5691;BME280;2870;42.680;23.364;2024-01-10T00:17:05;96158.84;;;-2.75;82.50
5691;BME280;2870;42.680;23.364;2024-01-10T00:19:31;96162.66;;;-2.50;83.24
5691;BME280;2870;42.680;23.364;2024-01-10T00:21:58;96167.66;;;-2.58;83.21
5691;BME280;2870;42.680;23.364;2024-01-10T00:24:25;96172.38;;;-2.80;82.08
5691;BME280;2870;42.680;23.364;2024-01-10T00:26:53;96175.09;;;-3.02;82.38
5691;BME280;2870;42.680;23.364;2024-01-10T00:29:20;96179.66;;;-2.86;85.05
5691;BME280;2870;42.680;23.364;2024-01-10T00:31:47;96171.59;;;-3.03;84.08
5691;BME280;2870;42.680;23.364;2024-01-10T00:34:14;96172.50;;;-2.84;85.04
5691;BME280;2870;42.680;23.364;2024-01-10T00:36:41;96177.88;;;-2.80;83.76
5691;BME280;2870;42.680;23.364;2024-01-10T00:39:08;96175.31;;;-2.97;83.74
5691;BME280;2870;42.680;23.364;2024-01-10T00:41:34;96175.66;;;-2.95;82.64
5691;BME280;2870;42.680;23.364;2024-01-10T00:44:02;96173.59;;;-2.81;83.73
5691;BME280;2870;42.680;23.364;2024-01-10T00:46:29;96172.66;;;-2.65;84.15
5691;BME280;2870;42.680;23.364;2024-01-10T00:48:56;96178.00;;;-2.62;82.86
5691;BME280;2870;42.680;23.364;2024-01-10T00:51:23;96180.56;;;-2.46;81.20
5691;BME280;2870;42.680;23.364;2024-01-10T00:53:49;96172.53;;;-2.62;83.86
5691;BME280;2870;42.680;23.364;2024-01-10T00:56:16;96173.94;;;-2.57;81.91
5691;BME280;2870;42.680;23.364;2024-01-10T00:58:43;96175.44;;;-2.34;82.85
5691;BME280;2870;42.680;23.364;2024-01-10T01:01:11;96178.59;;;-2.45;82.20
5691;BME280;2870;42.680;23.364;2024-01-10T01:03:38;96172.66;;;-2.44;83.94
5691;BME280;2870;42.680;23.364;2024-01-10T01:06:05;96178.19;;;-2.56;82.21
5691;BME280;2870;42.680;23.364;2024-01-10T01:08:32;96177.44;;;-2.79;81.43
5691;BME280;2870;42.680;23.364;2024-01-10T01:10:58;96173.66;;;-2.94;83.24
5691;BME280;2870;42.680;23.364;2024-01-10T01:13:25;96177.94;;;-2.93;83.67
5691;BME280;2870;42.680;23.364;2024-01-10T01:15:52;96172.06;;;-3.04;82.26
5691;BME280;2870;42.680;23.364;2024-01-10T01:18:21;96168.69;;;-2.86;83.86
5691;BME280;2870;42.680;23.364;2024-01-10T01:20:48;96162.38;;;-2.74;82.79
5691;BME280;2870;42.680;23.364;2024-01-10T01:23:15;96178.16;;;-2.65;81.70
5691;BME280;2870;42.680;23.364;2024-01-10T01:25:42;96169.72;;;-2.71;82.43
5691;BME280;2870;42.680;23.364;2024-01-10T01:28:09;96166.75;;;-2.99;83.43
5691;BME280;2870;42.680;23.364;2024-01-10T01:30:36;96159.31;;;-2.76;85.11
5691;BME280;2870;42.680;23.364;2024-01-10T01:33:04;96159.31;;;-2.54;85.06
5691;BME280;2870;42.680;23.364;2024-01-10T01:35:32;96156.41;;;-2.51;85.02
5691;BME280;2870;42.680;23.364;2024-01-10T01:37:59;96156.19;;;-2.65;82.92
5691;BME280;2870;42.680;23.364;2024-01-10T01:40:26;96156.09;;;-2.53;85.25
5691;BME280;2870;42.680;23.364;2024-01-10T01:42:53;96156.97;;;-2.34;83.92
5691;BME280;2870;42.680;23.364;2024-01-10T01:45:19;96162.56;;;-2.47;84.18
5691;BME280;2870;42.680;23.364;2024-01-10T01:47:46;96163.31;;;-2.46;84.70
5691;BME280;2870;42.680;23.364;2024-01-10T01:50:13;96156.44;;;-2.95;82.85
5691;BME280;2870;42.680;23.364;2024-01-10T01:52:41;96153.84;;;-3.11;83.12
5691;BME280;2870;42.680;23.364;2024-01-10T01:55:09;96157.66;;;-3.43;83.64
5691;BME280;2870;42.680;23.364;2024-01-10T01:57:37;96150.25;;;-3.21;85.31
5691;BME280;2870;42.680;23.364;2024-01-10T02:00:05;96102.31;;;-3.07;85.29
5691;BME280;2870;42.680;23.364;2024-01-10T02:02:32;96144.25;;;-2.72;82.64
5691;BME280;2870;42.680;23.364;2024-01-10T02:05:01;96139.75;;;-2.78;82.96
5691;BME280;2870;42.680;23.364;2024-01-10T02:07:28;96132.34;;;-2.69;85.94
5691;BME280;2870;42.680;23.364;2024-01-10T02:09:56;96130.44;;;-2.59;83.13
5691;BME280;2870;42.680;23.364;2024-01-10T02:12:24;96136.31;;;-2.70;83.70
5691;BME280;2870;42.680;23.364;2024-01-10T02:14:51;96132.81;;;-2.70;82.64
5691;BME280;2870;42.680;23.364;2024-01-10T02:17:18;96129.75;;;-2.72;84.48
5691;BME280;2870;42.680;23.364;2024-01-10T02:19:45;96133.75;;;-2.64;85.04
5691;BME280;2870;42.680;23.364;2024-01-10T02:22:11;96129.75;;;-2.41;83.78
5691;BME280;2870;42.680;23.364;2024-01-10T02:24:38;96132.91;;;-2.52;82.03
5691;BME280;2870;42.680;23.364;2024-01-10T02:27:07;96132.69;;;-2.88;81.98
5691;BME280;2870;42.680;23.364;2024-01-10T02:29:34;96136.69;;;-3.02;81.79
5691;BME280;2870;42.680;23.364;2024-01-10T02:32:01;96130.16;;;-2.74;83.20
5691;BME280;2870;42.680;23.364;2024-01-10T02:34:29;96137.91;;;-2.59;82.09
5691;BME280;2870;42.680;23.364;2024-01-10T02:36:56;96132.53;;;-2.85;80.61
5691;BME280;2870;42.680;23.364;2024-01-10T02:39:23;96134.47;;;-2.95;80.58
5691;BME280;2870;42.680;23.364;2024-01-10T02:41:50;96126.66;;;-2.96;81.71
5691;BME280;2870;42.680;23.364;2024-01-10T02:44:18;96129.75;;;-2.94;82.10
5691;BME280;2870;42.680;23.364;2024-01-10T02:46:45;96135.94;;;-2.81;83.22
5691;BME280;2870;42.680;23.364;2024-01-10T02:49:12;96132.81;;;-2.70;83.04
5691;BME280;2870;42.680;23.364;2024-01-10T02:51:39;96136.13;;;-2.75;81.97
5691;BME280;2870;42.680;23.364;2024-01-10T02:54:05;96145.25;;;-3.00;80.36
5691;BME280;2870;42.680;23.364;2024-01-10T02:56:32;96138.66;;;-3.03;81.31
5691;BME280;2870;42.680;23.364;2024-01-10T02:58:59;96143.53;;;-2.85;82.17
5691;BME280;2870;42.680;23.364;2024-01-10T03:04:10;96130.06;;;-2.92;80.71
5691;BME280;2870;42.680;23.364;2024-01-10T03:06:37;96129.59;;;-2.69;82.16
5691;BME280;2870;42.680;23.364;2024-01-10T03:09:04;96123.84;;;-2.61;81.43
5691;BME280;2870;42.680;23.364;2024-01-10T03:11:31;96134.81;;;-2.61;82.58
5691;BME280;2870;42.680;23.364;2024-01-10T03:14:02;96134.72;;;-2.58;80.43
5691;BME280;2870;42.680;23.364;2024-01-10T03:16:30;96137.38;;;-2.67;82.73
5691;BME280;2870;42.680;23.364;2024-01-10T03:18:56;96136.81;;;-2.62;80.23
5691;BME280;2870;42.680;23.364;2024-01-10T03:21:25;96137.25;;;-2.63;81.54
5691;BME280;2870;42.680;23.364;2024-01-10T03:23:52;96137.72;;;-2.65;83.08
5691;BME280;2870;42.680;23.364;2024-01-10T03:26:19;96144.44;;;-2.66;83.00
5691;BME280;2870;42.680;23.364;2024-01-10T03:28:45;96142.75;;;-2.63;82.12
5691;BME280;2870;42.680;23.364;2024-01-10T03:31:12;96146.72;;;-2.64;81.72
5691;BME280;2870;42.680;23.364;2024-01-10T03:33:39;96143.66;;;-2.67;82.40
5691;BME280;2870;42.680;23.364;2024-01-10T03:36:07;96144.03;;;-2.99;81.26
5691;BME280;2870;42.680;23.364;2024-01-10T03:38:36;96149.25;;;-2.92;81.05
5691;BME280;2870;42.680;23.364;2024-01-10T03:41:03;96147.84;;;-2.97;80.78
5691;BME280;2870;42.680;23.364;2024-01-10T03:43:30;96141.78;;;-3.13;78.27
5691;BME280;2870;42.680;23.364;2024-01-10T03:45:57;96135.22;;;-2.94;79.94
5691;BME280;2870;42.680;23.364;2024-01-10T03:48:24;96140.72;;;-2.94;78.52
5691;BME280;2870;42.680;23.364;2024-01-10T03:51:09;96139.06;;;-2.70;81.24
5691;BME280;2870;42.680;23.364;2024-01-10T03:53:37;96136.03;;;-2.62;81.01
5691;BME280;2870;42.680;23.364;2024-01-10T03:56:04;96151.44;;;-2.43;80.84
5691;BME280;2870;42.680;23.364;2024-01-10T03:58:31;96147.75;;;-2.49;80.54
5691;BME280;2870;42.680;23.364;2024-01-10T04:00:58;96143.53;;;-2.63;81.12
5691;BME280;2870;42.680;23.364;2024-01-10T04:03:25;96154.66;;;-2.67;81.12
5691;BME280;2870;42.680;23.364;2024-01-10T04:05:51;96149.72;;;-2.72;80.29
5691;BME280;2870;42.680;23.364;2024-01-10T04:08:18;96154.19;;;-2.87;79.94
5691;BME280;2870;42.680;23.364;2024-01-10T04:10:46;96147.94;;;-2.87;79.69
5691;BME280;2870;42.680;23.364;2024-01-10T04:13:13;96155.34;;;-2.75;81.20
5691;BME280;2870;42.680;23.364;2024-01-10T04:15:40;96151.53;;;-2.78;81.32
5691;BME280;2870;42.680;23.364;2024-01-10T04:18:07;96159.56;;;-2.83;82.30
5691;BME280;2870;42.680;23.364;2024-01-10T04:20:34;96162.44;;;-2.87;80.09
5691;BME280;2870;42.680;23.364;2024-01-10T04:23:00;96158.22;;;-2.79;81.23
5691;BME280;2870;42.680;23.364;2024-01-10T04:25:27;96165.38;;;-2.81;80.40
5691;BME280;2870;42.680;23.364;2024-01-10T04:27:55;96157.69;;;-2.86;81.63
5691;BME280;2870;42.680;23.364;2024-01-10T04:30:22;96167.00;;;-2.84;80.95
5691;BME280;2870;42.680;23.364;2024-01-10T04:32:49;96170.66;;;-2.87;79.78
5691;BME280;2870;42.680;23.364;2024-01-10T04:35:16;96185.44;;;-2.72;80.70
5691;BME280;2870;42.680;23.364;2024-01-10T04:37:43;96181.28;;;-2.76;80.88
5691;BME280;2870;42.680;23.364;2024-01-10T04:40:10;96182.16;;;-3.14;81.69
5691;BME280;2870;42.680;23.364;2024-01-10T04:42:37;96187.22;;;-3.12;80.70
5691;BME280;2870;42.680;23.364;2024-01-10T04:45:05;96178.78;;;-3.18;80.42
5691;BME280;2870;42.680;23.364;2024-01-10T04:47:32;96188.47;;;-2.91;80.23
5691;BME280;2870;42.680;23.364;2024-01-10T04:49:59;96183.09;;;-2.95;79.39
5691;BME280;2870;42.680;23.364;2024-01-10T04:52:26;96197.56;;;-2.82;79.73
5691;BME280;2870;42.680;23.364;2024-01-10T04:54:53;96191.50;;;-2.77;80.42
5691;BME280;2870;42.680;23.364;2024-01-10T04:57:19;96200.50;;;-2.76;79.37
5691;BME280;2870;42.680;23.364;2024-01-10T04:59:46;96194.28;;;-2.89;77.01
5691;BME280;2870;42.680;23.364;2024-01-10T05:02:14;96203.69;;;-2.78;78.75
5691;BME280;2870;42.680;23.364;2024-01-10T05:04:41;96199.66;;;-2.86;77.33
5691;BME280;2870;42.680;23.364;2024-01-10T05:07:08;96195.50;;;-2.69;79.63
5691;BME280;2870;42.680;23.364;2024-01-10T05:09:36;96198.28;;;-2.47;79.40
5691;BME280;2870;42.680;23.364;2024-01-10T05:12:03;96193.66;;;-2.50;79.08
5691;BME280;2870;42.680;23.364;2024-01-10T05:14:29;96188.47;;;-2.91;77.91
5691;BME280;2870;42.680;23.364;2024-01-10T05:16:56;96194.47;;;-2.84;79.67
5691;BME280;2870;42.680;23.364;2024-01-10T05:19:24;96204.69;;;-3.06;79.24
5691;BME280;2870;42.680;23.364;2024-01-10T05:21:51;96210.31;;;-2.88;78.74
5691;BME280;2870;42.680;23.364;2024-01-10T05:24:19;96205.84;;;-2.73;79.93
5691;BME280;2870;42.680;23.364;2024-01-10T05:26:46;96213.47;;;-3.11;78.30
5691;BME280;2870;42.680;23.364;2024-01-10T05:29:16;96213.78;;;-3.09;78.34
5691;BME280;2870;42.680;23.364;2024-01-10T05:31:45;96206.22;;;-3.05;78.12
5691;BME280;2870;42.680;23.364;2024-01-10T05:34:11;96215.69;;;-2.84;79.62
5691;BME280;2870;42.680;23.364;2024-01-10T05:36:39;96223.22;;;-2.76;78.96
5691;BME280;2870;42.680;23.364;2024-01-10T05:39:06;96217.28;;;-2.74;78.43
5691;BME280;2870;42.680;23.364;2024-01-10T05:41:33;96214.69;;;-2.78;78.75
5691;BME280;2870;42.680;23.364;2024-01-10T05:44:00;96220.09;;;-2.87;79.15
5691;BME280;2870;42.680;23.364;2024-01-10T05:46:27;96212.31;;;-3.01;78.81
5691;BME280;2870;42.680;23.364;2024-01-10T05:48:54;96217.59;;;-2.94;78.69
5691;BME280;2870;42.680;23.364;2024-01-10T05:51:20;96217.59;;;-2.94;78.19
5691;BME280;2870;42.680;23.364;2024-01-10T05:53:48;96217.53;;;-3.16;77.26
5691;BME280;2870;42.680;23.364;2024-01-10T05:56:15;96212.31;;;-3.01;76.31
5691;BME280;2870;42.680;23.364;2024-01-10T05:58:42;96222.19;;;-2.91;76.13
5691;BME280;2870;42.680;23.364;2024-01-10T06:01:09;96224.47;;;-2.89;75.56
5691;BME280;2870;42.680;23.364;2024-01-10T06:03:36;96223.28;;;-2.88;74.71
5691;BME280;2870;42.680;23.364;2024-01-10T06:06:04;96222.94;;;-2.90;76.35
5691;BME280;2870;42.680;23.364;2024-01-10T06:08:31;96226.53;;;-2.81;76.32
5691;BME280;2870;42.680;23.364;2024-01-10T06:10:59;96233.41;;;-2.98;75.40
5691;BME280;2870;42.680;23.364;2024-01-10T06:13:25;96226.38;;;-2.99;75.00
5691;BME280;2870;42.680;23.364;2024-01-10T06:15:52;96235.97;;;-3.29;75.18
5691;BME280;2870;42.680;23.364;2024-01-10T06:18:19;96243.22;;;-3.10;75.95
5691;BME280;2870;42.680;23.364;2024-01-10T06:20:46;96246.56;;;-2.93;76.62
5691;BME280;2870;42.680;23.364;2024-01-10T06:23:13;96246.03;;;-3.01;75.98
5691;BME280;2870;42.680;23.364;2024-01-10T06:25:40;96247.44;;;-2.96;75.62
5691;BME280;2870;42.680;23.364;2024-01-10T06:28:08;96248.25;;;-2.61;74.23
5691;BME280;2870;42.680;23.364;2024-01-10T06:30:34;96254.09;;;-2.72;72.64
5691;BME280;2870;42.680;23.364;2024-01-10T06:33:01;96261.47;;;-2.81;69.96
5691;BME280;2870;42.680;23.364;2024-01-10T06:35:29;96260.34;;;-2.71;71.58
5691;BME280;2870;42.680;23.364;2024-01-10T06:37:56;96264.63;;;-2.70;71.10
5691;BME280;2870;42.680;23.364;2024-01-10T06:40:23;96265.44;;;-2.48;70.74
5691;BME280;2870;42.680;23.364;2024-01-10T06:42:49;96264.41;;;-2.41;71.77
5691;BME280;2870;42.680;23.364;2024-01-10T06:45:18;96275.97;;;-2.46;70.12
5691;BME280;2870;42.680;23.364;2024-01-10T06:47:45;96269.97;;;-2.54;71.28
5691;BME280;2870;42.680;23.364;2024-01-10T06:50:12;96277.34;;;-2.63;71.83
5691;BME280;2870;42.680;23.364;2024-01-10T06:52:39;96271.97;;;-2.32;72.16
5691;BME280;2870;42.680;23.364;2024-01-10T06:55:07;96268.13;;;-2.35;70.56
5691;BME280;2870;42.680;23.364;2024-01-10T06:57:34;96279.00;;;-2.31;70.21
5691;BME280;2870;42.680;23.364;2024-01-10T07:00:01;96280.91;;;-2.41;71.04
5691;BME280;2870;42.680;23.364;2024-01-10T07:02:33;96285.69;;;-2.54;69.02
5691;BME280;2870;42.680;23.364;2024-01-10T07:05:01;96279.16;;;-2.82;66.65
5691;BME280;2870;42.680;23.364;2024-01-10T07:07:28;96273.13;;;-2.90;67.04
5691;BME280;2870;42.680;23.364;2024-01-10T07:09:54;96279.44;;;-2.68;66.28
5691;BME280;2870;42.680;23.364;2024-01-10T07:12:21;96277.00;;;-2.87;65.44
5691;BME280;2870;42.680;23.364;2024-01-10T07:14:48;96281.81;;;-2.91;65.74
5691;BME280;2870;42.680;23.364;2024-01-10T07:17:15;96284.03;;;-2.30;66.65
5691;BME280;2870;42.680;23.364;2024-01-10T07:19:43;96289.88;;;-2.62;64.61
5691;BME280;2870;42.680;23.364;2024-01-10T07:22:11;96292.22;;;-2.74;64.13
5691;BME280;2870;42.680;23.364;2024-01-10T07:24:38;96296.16;;;-2.40;66.75
5691;BME280;2870;42.680;23.364;2024-01-10T07:27:05;96288.69;;;-2.40;64.00
5691;BME280;2870;42.680;23.364;2024-01-10T07:29:32;96292.66;;;-2.19;65.83
5691;BME280;2870;42.680;23.364;2024-01-10T07:31:59;96294.19;;;-2.18;66.51
5691;BME280;2870;42.680;23.364;2024-01-10T07:34:25;96305.38;;;-2.34;64.94
5691;BME280;2870;42.680;23.364;2024-01-10T07:36:53;96301.88;;;-2.13;66.90
5691;BME280;2870;42.680;23.364;2024-01-10T07:39:20;96305.97;;;-1.95;66.41
5691;BME280;2870;42.680;23.364;2024-01-10T07:41:47;96315.25;;;-2.58;64.71
5691;BME280;2870;42.680;23.364;2024-01-10T07:44:15;96308.53;;;-2.57;65.43
5691;BME280;2870;42.680;23.364;2024-01-10T07:46:42;96316.47;;;-2.03;65.78
5691;BME280;2870;42.680;23.364;2024-01-10T07:49:09;96313.00;;;-2.51;63.65
5691;BME280;2870;42.680;23.364;2024-01-10T07:51:35;96316.59;;;-2.06;67.11
5691;BME280;2870;42.680;23.364;2024-01-10T07:54:04;96312.69;;;-1.96;65.65
5691;BME280;2870;42.680;23.364;2024-01-10T07:56:30;96322.19;;;-1.88;65.34
5691;BME280;2870;42.680;23.364;2024-01-10T07:58:57;96307.81;;;-1.39;63.64
5691;BME280;2870;42.680;23.364;2024-01-10T08:01:24;96309.34;;;-1.38;62.79
5691;BME280;2870;42.680;23.364;2024-01-10T08:03:51;96310.03;;;-1.78;61.49
5691;BME280;2870;42.680;23.364;2024-01-10T08:06:18;96311.84;;;-2.06;61.55
5691;BME280;2870;42.680;23.364;2024-01-10T08:08:45;96312.22;;;-2.17;63.04
5691;BME280;2870;42.680;23.364;2024-01-10T08:11:13;96314.22;;;-1.95;61.97
5691;BME280;2870;42.680;23.364;2024-01-10T08:13:39;96315.28;;;-1.71;61.50
5691;BME280;2870;42.680;23.364;2024-01-10T08:16:06;96329.53;;;-1.41;59.48
5691;BME280;2870;42.680;23.364;2024-01-10T08:18:34;96318.94;;;-1.02;61.28
5691;BME280;2870;42.680;23.364;2024-01-10T08:21:00;96323.75;;;-1.25;58.02
5691;BME280;2870;42.680;23.364;2024-01-10T08:23:29;96321.78;;;-1.55;56.75
5691;BME280;2870;42.680;23.364;2024-01-10T08:25:56;96324.78;;;-1.41;56.77
5691;BME280;2870;42.680;23.364;2024-01-10T08:28:23;96321.34;;;-1.23;55.82
5691;BME280;2870;42.680;23.364;2024-01-10T08:30:51;96328.78;;;-0.92;55.94
5691;BME280;2870;42.680;23.364;2024-01-10T08:33:18;96323.16;;;-1.20;54.47
5691;BME280;2870;42.680;23.364;2024-01-10T08:35:45;96326.91;;;-1.04;56.03
5691;BME280;2870;42.680;23.364;2024-01-10T08:38:11;96325.28;;;-1.64;53.82
5691;BME280;2870;42.680;23.364;2024-01-10T08:40:38;96324.38;;;-1.30;53.94
5691;BME280;2870;42.680;23.364;2024-01-10T08:43:05;96325.66;;;-1.13;53.27
5691;BME280;2870;42.680;23.364;2024-01-10T08:45:33;96328.84;;;-1.14;55.05
5691;BME280;2870;42.680;23.364;2024-01-10T08:48:00;96332.25;;;-1.10;53.22
5691;BME280;2870;42.680;23.364;2024-01-10T08:50:27;96333.22;;;-0.95;55.41
5691;BME280;2870;42.680;23.364;2024-01-10T08:52:54;96333.94;;;-1.44;51.80
5691;BME280;2870;42.680;23.364;2024-01-10T08:55:21;96328.38;;;-1.22;56.43
5691;BME280;2870;42.680;23.364;2024-01-10T08:57:48;96327.22;;;-1.02;56.62
5691;BME280;2870;42.680;23.364;2024-01-10T09:00:15;96328.50;;;-0.85;55.36
5691;BME280;2870;42.680;23.364;2024-01-10T09:02:43;96326.75;;;-0.42;53.50
5691;BME280;2870;42.680;23.364;2024-01-10T09:05:10;96329.75;;;0.51;54.22
5691;BME280;2870;42.680;23.364;2024-01-10T09:07:37;96326.66;;;1.34;53.47
5691;BME280;2870;42.680;23.364;2024-01-10T09:10:05;96323.47;;;2.13;49.61
5691;BME280;2870;42.680;23.364;2024-01-10T09:12:33;96332.09;;;2.89;47.20
5691;BME280;2870;42.680;23.364;2024-01-10T09:15:00;96322.44;;;3.69;45.30
5691;BME280;2870;42.680;23.364;2024-01-10T09:17:29;96323.69;;;4.61;45.31
5691;BME280;2870;42.680;23.364;2024-01-10T09:19:57;96328.28;;;3.92;43.62
5691;BME280;2870;42.680;23.364;2024-01-10T09:22:24;96325.00;;;3.93;46.47
5691;BME280;2870;42.680;23.364;2024-01-10T09:24:51;96328.00;;;4.36;44.43
5691;BME280;2870;42.680;23.364;2024-01-10T09:27:17;96324.44;;;3.89;42.95
5691;BME280;2870;42.680;23.364;2024-01-10T09:29:44;96325.50;;;3.92;42.87
5691;BME280;2870;42.680;23.364;2024-01-10T09:32:11;96323.59;;;4.50;46.56
5691;BME280;2870;42.680;23.364;2024-01-10T09:34:37;96326.59;;;4.72;41.79
5691;BME280;2870;42.680;23.364;2024-01-10T09:37:06;96315.94;;;5.34;43.87
5691;BME280;2870;42.680;23.364;2024-01-10T09:39:32;96317.66;;;5.69;44.56
5691;BME280;2870;42.680;23.364;2024-01-10T09:41:59;96314.81;;;5.20;43.38
5691;BME280;2870;42.680;23.364;2024-01-10T09:44:27;96319.66;;;4.88;47.03
5691;BME280;2870;42.680;23.364;2024-01-10T09:46:54;96321.47;;;4.97;42.31
5691;BME280;2870;42.680;23.364;2024-01-10T09:49:22;96310.78;;;5.64;43.09
5691;BME280;2870;42.680;23.364;2024-01-10T09:51:49;96308.69;;;5.48;41.72
5691;BME280;2870;42.680;23.364;2024-01-10T09:54:17;96313.28;;;6.10;43.88
5691;BME280;2870;42.680;23.364;2024-01-10T09:56:45;96301.78;;;5.38;41.78
5691;BME280;2870;42.680;23.364;2024-01-10T09:59:13;96307.47;;;5.17;41.25
5691;BME280;2870;42.680;23.364;2024-01-10T10:01:40;96301.38;;;4.82;42.11
5691;BME280;2870;42.680;23.364;2024-01-10T10:04:07;96293.94;;;4.41;42.57
5691;BME280;2870;42.680;23.364;2024-01-10T10:06:36;96293.25;;;4.46;43.63
5691;BME280;2870;42.680;23.364;2024-01-10T10:09:02;96288.72;;;5.12;44.83
5691;BME280;2870;42.680;23.364;2024-01-10T10:11:31;96294.28;;;5.12;42.53
5691;BME280;2870;42.680;23.364;2024-01-10T10:14:13;96285.97;;;5.61;42.63
5691;BME280;2870;42.680;23.364;2024-01-10T10:16:40;96280.38;;;5.55;41.25
5691;BME280;2870;42.680;23.364;2024-01-10T10:19:07;96286.06;;;5.83;39.46
5691;BME280;2870;42.680;23.364;2024-01-10T10:21:35;96277.91;;;5.68;40.23
5691;BME280;2870;42.680;23.364;2024-01-10T10:24:02;96261.59;;;4.12;42.00
5691;BME280;2870;42.680;23.364;2024-01-10T10:26:33;96261.75;;;4.29;43.33
5691;BME280;2870;42.680;23.364;2024-01-10T10:29:00;96256.38;;;4.77;48.18
5691;BME280;2870;42.680;23.364;2024-01-10T10:31:27;96270.03;;;5.67;42.84
5691;BME280;2870;42.680;23.364;2024-01-10T10:33:54;96264.31;;;5.33;42.57
5691;BME280;2870;42.680;23.364;2024-01-10T10:36:22;96256.94;;;5.78;42.62
5691;BME280;2870;42.680;23.364;2024-01-10T10:38:49;96258.25;;;5.89;42.49
5691;BME280;2870;42.680;23.364;2024-01-10T10:41:16;96239.59;;;5.03;42.77
5691;BME280;2870;42.680;23.364;2024-01-10T10:43:46;96242.25;;;5.18;43.85
5691;BME280;2870;42.680;23.364;2024-01-10T10:46:15;96242.44;;;5.57;45.86
5691;BME280;2870;42.680;23.364;2024-01-10T10:48:42;96237.81;;;5.97;42.39
5691;BME280;2870;42.680;23.364;2024-01-10T10:51:10;96241.63;;;6.17;42.20
5691;BME280;2870;42.680;23.364;2024-01-10T10:53:39;96233.41;;;5.79;44.46
5691;BME280;2870;42.680;23.364;2024-01-10T10:56:07;96221.00;;;5.75;43.38
5691;BME280;2870;42.680;23.364;2024-01-10T10:58:35;96216.88;;;4.68;48.38
5691;BME280;2870;42.680;23.364;2024-01-10T11:01:07;96218.28;;;3.74;43.93
5691;BME280;2870;42.680;23.364;2024-01-10T11:03:36;96215.41;;;3.89;44.29
5691;BME280;2870;42.680;23.364;2024-01-10T11:06:04;96220.31;;;3.33;45.71
5691;BME280;2870;42.680;23.364;2024-01-10T11:08:35;96212.19;;;3.09;45.09
5691;BME280;2870;42.680;23.364;2024-01-10T11:11:04;96197.84;;;2.40;48.19
5691;BME280;2870;42.680;23.364;2024-01-10T11:16:53;96197.19;;;2.80;49.67
5691;BME280;2870;42.680;23.364;2024-01-10T11:19:51;96195.84;;;2.90;47.63
5691;BME280;2870;42.680;23.364;2024-01-10T11:22:36;96195.59;;;2.74;49.86
5691;BME280;2870;42.680;23.364;2024-01-10T11:25:07;96193.09;;;2.11;53.20
5691;BME280;2870;42.680;23.364;2024-01-10T11:27:36;96185.38;;;2.65;51.48
5691;BME280;2870;42.680;23.364;2024-01-10T11:30:05;96176.19;;;2.24;50.87
5691;BME280;2870;42.680;23.364;2024-01-10T11:32:33;96169.88;;;1.49;50.40
5691;BME280;2870;42.680;23.364;2024-01-10T11:35:05;96177.81;;;1.56;50.94
5691;BME280;2870;42.680;23.364;2024-01-10T11:37:42;96181.03;;;1.55;52.63
5691;BME280;2870;42.680;23.364;2024-01-10T11:40:12;96165.22;;;1.17;52.95
5691;BME280;2870;42.680;23.364;2024-01-10T11:42:41;96161.00;;;1.30;52.79
5691;BME280;2870;42.680;23.364;2024-01-10T11:45:08;96166.47;;;1.16;52.02
5691;BME280;2870;42.680;23.364;2024-01-10T11:47:39;96161.75;;;1.31;53.22
5691;BME280;2870;42.680;23.364;2024-01-10T11:50:07;96158.13;;;1.40;52.58
5691;BME280;2870;42.680;23.364;2024-01-10T11:52:36;96154.44;;;1.19;53.65
5691;BME280;2870;42.680;23.364;2024-01-10T11:55:04;96150.56;;;0.87;55.71
5691;BME280;2870;42.680;23.364;2024-01-10T11:57:32;96144.28;;;1.25;55.36
5691;BME280;2870;42.680;23.364;2024-01-10T11:59:59;96139.28;;;1.68;54.80
5691;BME280;2870;42.680;23.364;2024-01-10T12:02:29;96138.88;;;1.45;53.09
5691;BME280;2870;42.680;23.364;2024-01-10T12:04:57;96138.09;;;1.30;54.41
5691;BME280;2870;42.680;23.364;2024-01-10T12:07:24;96134.59;;;1.74;55.94
5691;BME280;2870;42.680;23.364;2024-01-10T12:09:51;96129.25;;;1.02;53.90
5691;BME280;2870;42.680;23.364;2024-01-10T12:12:18;96132.84;;;0.93;56.98
5691;BME280;2870;42.680;23.364;2024-01-10T12:14:45;96130.09;;;0.93;56.36
5691;BME280;2870;42.680;23.364;2024-01-10T12:17:12;96122.41;;;1.12;58.36
5691;BME280;2870;42.680;23.364;2024-01-10T12:19:38;96133.84;;;1.05;55.67
5691;BME280;2870;42.680;23.364;2024-01-10T12:22:08;96121.81;;;1.32;56.45
5691;BME280;2870;42.680;23.364;2024-01-10T12:24:42;96116.59;;;1.78;56.13
5691;BME280;2870;42.680;23.364;2024-01-10T12:27:09;96107.53;;;1.78;54.04
5691;BME280;2870;42.680;23.364;2024-01-10T12:29:36;96117.94;;;1.53;55.99
5691;BME280;2870;42.680;23.364;2024-01-10T12:32:03;96120.41;;;1.13;56.33
5691;BME280;2870;42.680;23.364;2024-01-10T12:34:30;96123.28;;;1.18;59.71
5691;BME280;2870;42.680;23.364;2024-01-10T12:36:57;96121.91;;;1.52;56.27
5691;BME280;2870;42.680;23.364;2024-01-10T12:39:25;96118.88;;;1.50;57.52
5691;BME280;2870;42.680;23.364;2024-01-10T12:41:57;96075.44;;;1.12;56.34
5691;BME280;2870;42.680;23.364;2024-01-10T12:44:27;96125.81;;;1.75;56.24
5691;BME280;2870;42.680;23.364;2024-01-10T12:46:54;96114.56;;;1.64;57.97
5691;BME280;2870;42.680;23.364;2024-01-10T12:49:22;96119.97;;;1.29;56.69
5691;BME280;2870;42.680;23.364;2024-01-10T12:51:49;96125.91;;;1.37;58.14
5691;BME280;2870;42.680;23.364;2024-01-10T12:54:16;96125.34;;;1.47;57.85
5691;BME280;2870;42.680;23.364;2024-01-10T12:56:44;96120.41;;;1.13;60.01
5691;BME280;2870;42.680;23.364;2024-01-10T12:59:12;96123.59;;;1.35;59.58
5691;BME280;2870;42.680;23.364;2024-01-10T13:01:39;96122.31;;;1.60;58.73
5691;BME280;2870;42.680;23.364;2024-01-10T13:04:07;96120.97;;;1.55;59.09
5691;BME280;2870;42.680;23.364;2024-01-10T13:06:33;96119.03;;;1.32;58.47
5691;BME280;2870;42.680;23.364;2024-01-10T13:09:00;96115.22;;;1.29;59.42
5691;BME280;2870;42.680;23.364;2024-01-10T13:11:27;96124.50;;;1.56;58.05
5691;BME280;2870;42.680;23.364;2024-01-10T13:13:56;96123.00;;;1.16;58.58
5691;BME280;2870;42.680;23.364;2024-01-10T13:16:23;96122.06;;;1.19;60.33
5691;BME280;2870;42.680;23.364;2024-01-10T13:18:50;96128.19;;;1.53;60.01
5691;BME280;2870;42.680;23.364;2024-01-10T13:21:18;96116.75;;;1.30;60.40
5691;BME280;2870;42.680;23.364;2024-01-10T13:23:45;96116.13;;;1.12;59.85